sensor_id;sensor_type;location;lat;lon;timestamp;temperature;humidity
65146;DHT22;51730;56.950;24.126;2023-04-03T00:00:48;0.80;74.90
65146;DHT22;51730;56.950;24.126;2023-04-03T00:03:16;0.70;75.50
65146;DHT22;51730;56.950;24.126;2023-04-03T00:05:44;0.80;75.50
65146;DHT22;51730;56.950;24.126;2023-04-03T00:08:11;0.80;76.40
65146;DHT22;51730;56.950;24.126;2023-04-03T00:10:38;0.80;77.20
65146;DHT22;51730;56.950;24.126;2023-04-03T00:13:05;0.80;77.00
65146;DHT22;51730;56.950;24.126;2023-04-03T00:15:32;0.80;78.20
65146;DHT22;51730;56.950;24.126;2023-04-03T00:17:59;0.70;78.40
65146;DHT22;51730;56.950;24.126;2023-04-03T00:20:26;0.70;79.50
65146;DHT22;51730;56.950;24.126;2023-04-03T00:22:53;0.70;80.10
65146;DHT22;51730;56.950;24.126;2023-04-03T00:25:20;0.70;80.80
65146;DHT22;51730;56.950;24.126;2023-04-03T00:27:47;0.70;82.40
65146;DHT22;51730;56.950;24.126;2023-04-03T00:30:14;0.70;82.60
65146;DHT22;51730;56.950;24.126;2023-04-03T00:32:42;0.70;83.40
65146;DHT22;51730;56.950;24.126;2023-04-03T00:35:09;0.70;85.20
65146;DHT22;51730;56.950;24.126;2023-04-03T00:37:36;0.70;84.90
65146;DHT22;51730;56.950;24.126;2023-04-03T00:40:03;0.70;86.00
65146;DHT22;51730;56.950;24.126;2023-04-03T00:42:30;0.70;86.70
65146;DHT22;51730;56.950;24.126;2023-04-03T00:47:24;0.60;90.10
65146;DHT22;51730;56.950;24.126;2023-04-03T00:49:51;0.60;90.40
65146;DHT22;51730;56.950;24.126;2023-04-03T00:52:19;0.60;90.70
65146;DHT22;51730;56.950;24.126;2023-04-03T00:54:47;0.60;91.40
65146;DHT22;51730;56.950;24.126;2023-04-03T00:57:15;0.60;91.90
65146;DHT22;51730;56.950;24.126;2023-04-03T00:59:44;0.60;92.80
65146;DHT22;51730;56.950;24.126;2023-04-03T01:02:11;0.60;93.50
65146;DHT22;51730;56.950;24.126;2023-04-03T01:04:39;0.60;94.00
65146;DHT22;51730;56.950;24.126;2023-04-03T01:07:07;0.60;94.80
65146;DHT22;51730;56.950;24.126;2023-04-03T01:09:34;0.60;95.20
65146;DHT22;51730;56.950;24.126;2023-04-03T01:14:44;0.60;96.40
65146;DHT22;51730;56.950;24.126;2023-04-03T01:25:35;0.60;98.60
65146;DHT22;51730;56.950;24.126;2023-04-03T01:28:03;0.60;98.60
65146;DHT22;51730;56.950;24.126;2023-04-03T01:30:32;0.60;99.80
65146;DHT22;51730;56.950;24.126;2023-04-03T01:32:59;0.50;99.90
65146;DHT22;51730;56.950;24.126;2023-04-03T01:35:26;0.50;99.90
65146;DHT22;51730;56.950;24.126;2023-04-03T01:37:53;0.50;99.90
65146;DHT22;51730;56.950;24.126;2023-04-03T01:40:19;0.60;99.90
65146;DHT22;51730;56.950;24.126;2023-04-03T01:42:46;0.60;99.90
65146;DHT22;51730;56.950;24.126;2023-04-03T01:45:13;0.50;99.90
65146;DHT22;51730;56.950;24.126;2023-04-03T01:47:40;0.50;99.90
65146;DHT22;51730;56.950;24.126;2023-04-03T01:50:07;0.50;99.90
65146;DHT22;51730;56.950;24.126;2023-04-03T01:52:33;0.50;99.90
65146;DHT22;51730;56.950;24.126;2023-04-03T01:55:00;0.50;99.90
65146;DHT22;51730;56.950;24.126;2023-04-03T01:57:27;0.50;99.90
65146;DHT22;51730;56.950;24.126;2023-04-03T01:59:54;0.50;99.90
65146;DHT22;51730;56.950;24.126;2023-04-03T02:02:21;0.50;99.90
65146;DHT22;51730;56.950;24.126;2023-04-03T02:04:47;0.50;99.90
65146;DHT22;51730;56.950;24.126;2023-04-03T02:07:14;0.40;99.90
65146;DHT22;51730;56.950;24.126;2023-04-03T02:09:41;0.50;99.90
65146;DHT22;51730;56.950;24.126;2023-04-03T02:12:08;0.40;99.90
65146;DHT22;51730;56.950;24.126;2023-04-03T02:14:35;0.40;99.90
65146;DHT22;51730;56.950;24.126;2023-04-03T02:17:02;0.40;99.90
65146;DHT22;51730;56.950;24.126;2023-04-03T02:19:35;0.40;99.90
65146;DHT22;51730;56.950;24.126;2023-04-03T02:22:03;0.40;99.90
65146;DHT22;51730;56.950;24.126;2023-04-03T02:24:30;0.40;99.90
65146;DHT22;51730;56.950;24.126;2023-04-03T02:26:57;0.50;99.90
65146;DHT22;51730;56.950;24.126;2023-04-03T02:29:24;0.40;99.90
65146;DHT22;51730;56.950;24.126;2023-04-03T02:31:50;0.40;99.90
65146;DHT22;51730;56.950;24.126;2023-04-03T02:34:17;0.40;99.90
65146;DHT22;51730;56.950;24.126;2023-04-03T02:36:44;0.40;99.90
65146;DHT22;51730;56.950;24.126;2023-04-03T02:39:11;0.30;99.90
65146;DHT22;51730;56.950;24.126;2023-04-03T02:41:38;0.30;99.90
65146;DHT22;51730;56.950;24.126;2023-04-03T02:44:05;0.30;99.90
65146;DHT22;51730;56.950;24.126;2023-04-03T02:46:32;0.30;99.90
65146;DHT22;51730;56.950;24.126;2023-04-03T02:48:59;0.30;99.90
65146;DHT22;51730;56.950;24.126;2023-04-03T02:51:26;0.30;99.90
65146;DHT22;51730;56.950;24.126;2023-04-03T02:53:53;0.30;99.90
65146;DHT22;51730;56.950;24.126;2023-04-03T02:56:20;0.30;99.90
65146;DHT22;51730;56.950;24.126;2023-04-03T02:58:47;0.30;99.90
65146;DHT22;51730;56.950;24.126;2023-04-03T03:01:14;0.30;99.90
65146;DHT22;51730;56.950;24.126;2023-04-03T03:03:41;0.20;99.90
65146;DHT22;51730;56.950;24.126;2023-04-03T03:06:12;0.30;99.90
65146;DHT22;51730;56.950;24.126;2023-04-03T03:08:39;0.30;99.90
65146;DHT22;51730;56.950;24.126;2023-04-03T03:11:06;0.30;99.90
65146;DHT22;51730;56.950;24.126;2023-04-03T03:13:33;0.30;99.90
65146;DHT22;51730;56.950;24.126;2023-04-03T03:16:00;0.30;99.90
65146;DHT22;51730;56.950;24.126;2023-04-03T03:18:27;0.30;99.90
65146;DHT22;51730;56.950;24.126;2023-04-03T03:20:54;0.20;99.90
65146;DHT22;51730;56.950;24.126;2023-04-03T03:23:22;0.30;99.90
65146;DHT22;51730;56.950;24.126;2023-04-03T03:25:53;0.30;99.90
65146;DHT22;51730;56.950;24.126;2023-04-03T03:28:20;0.30;99.90
65146;DHT22;51730;56.950;24.126;2023-04-03T03:30:47;0.30;99.90
65146;DHT22;51730;56.950;24.126;2023-04-03T03:33:14;0.30;99.90
65146;DHT22;51730;56.950;24.126;2023-04-03T03:35:41;0.20;99.90
65146;DHT22;51730;56.950;24.126;2023-04-03T03:38:08;0.30;99.90
65146;DHT22;51730;56.950;24.126;2023-04-03T03:40:35;0.20;99.90
65146;DHT22;51730;56.950;24.126;2023-04-03T03:43:02;0.20;99.90
65146;DHT22;51730;56.950;24.126;2023-04-03T03:45:28;0.20;99.90
65146;DHT22;51730;56.950;24.126;2023-04-03T03:47:55;0.30;99.90
65146;DHT22;51730;56.950;24.126;2023-04-03T03:50:22;0.30;99.90
65146;DHT22;51730;56.950;24.126;2023-04-03T03:52:49;0.30;99.90
65146;DHT22;51730;56.950;24.126;2023-04-03T03:55:16;0.30;99.90
65146;DHT22;51730;56.950;24.126;2023-04-03T03:57:43;0.30;99.90
65146;DHT22;51730;56.950;24.126;2023-04-03T04:00:10;0.20;99.90
65146;DHT22;51730;56.950;24.126;2023-04-03T04:02:36;0.20;99.90
65146;DHT22;51730;56.950;24.126;2023-04-03T04:05:04;0.20;99.90
65146;DHT22;51730;56.950;24.126;2023-04-03T04:07:30;0.20;99.90
65146;DHT22;51730;56.950;24.126;2023-04-03T04:09:57;0.20;99.90
65146;DHT22;51730;56.950;24.126;2023-04-03T04:12:24;0.30;99.90
65146;DHT22;51730;56.950;24.126;2023-04-03T04:14:51;0.20;99.90
65146;DHT22;51730;56.950;24.126;2023-04-03T04:17:17;0.20;99.90
65146;DHT22;51730;56.950;24.126;2023-04-03T04:19:44;0.30;99.90
65146;DHT22;51730;56.950;24.126;2023-04-03T04:22:11;0.30;99.90
65146;DHT22;51730;56.950;24.126;2023-04-03T04:24:38;0.30;99.90
65146;DHT22;51730;56.950;24.126;2023-04-03T04:27:05;0.30;99.90
65146;DHT22;51730;56.950;24.126;2023-04-03T04:29:32;0.30;99.90
65146;DHT22;51730;56.950;24.126;2023-04-03T04:32:02;0.30;99.90
65146;DHT22;51730;56.950;24.126;2023-04-03T04:34:29;0.30;99.90
65146;DHT22;51730;56.950;24.126;2023-04-03T04:36:56;0.40;99.90
65146;DHT22;51730;56.950;24.126;2023-04-03T04:39:23;0.40;99.90
65146;DHT22;51730;56.950;24.126;2023-04-03T04:41:50;0.40;99.90
65146;DHT22;51730;56.950;24.126;2023-04-03T04:44:17;0.40;99.90
65146;DHT22;51730;56.950;24.126;2023-04-03T04:46:44;0.50;99.90
65146;DHT22;51730;56.950;24.126;2023-04-03T04:49:11;0.40;99.90
65146;DHT22;51730;56.950;24.126;2023-04-03T04:51:38;0.50;99.90
65146;DHT22;51730;56.950;24.126;2023-04-03T04:54:17;0.60;99.90
65146;DHT22;51730;56.950;24.126;2023-04-03T04:56:44;0.60;99.90
65146;DHT22;51730;56.950;24.126;2023-04-03T04:59:10;0.50;99.90
65146;DHT22;51730;56.950;24.126;2023-04-03T05:01:37;0.60;99.90
65146;DHT22;51730;56.950;24.126;2023-04-03T05:04:04;0.60;99.90
65146;DHT22;51730;56.950;24.126;2023-04-03T05:06:31;0.60;99.90
65146;DHT22;51730;56.950;24.126;2023-04-03T05:08:58;0.60;99.90
65146;DHT22;51730;56.950;24.126;2023-04-03T05:11:25;0.70;99.90
65146;DHT22;51730;56.950;24.126;2023-04-03T05:13:52;0.80;99.90
65146;DHT22;51730;56.950;24.126;2023-04-03T05:16:19;0.90;99.90
65146;DHT22;51730;56.950;24.126;2023-04-03T05:18:46;0.80;99.90
65146;DHT22;51730;56.950;24.126;2023-04-03T05:21:13;0.70;99.90
65146;DHT22;51730;56.950;24.126;2023-04-03T05:23:40;0.70;99.90
65146;DHT22;51730;56.950;24.126;2023-04-03T05:26:06;0.70;99.90
65146;DHT22;51730;56.950;24.126;2023-04-03T05:28:33;0.70;99.90
65146;DHT22;51730;56.950;24.126;2023-04-03T05:31:00;0.80;99.90
65146;DHT22;51730;56.950;24.126;2023-04-03T05:33:26;0.90;99.90
65146;DHT22;51730;56.950;24.126;2023-04-03T05:35:53;1.00;99.90
65146;DHT22;51730;56.950;24.126;2023-04-03T05:38:21;0.90;99.90
65146;DHT22;51730;56.950;24.126;2023-04-03T05:40:47;1.00;99.90
65146;DHT22;51730;56.950;24.126;2023-04-03T05:43:14;0.90;99.90
65146;DHT22;51730;56.950;24.126;2023-04-03T05:45:42;1.00;99.90
65146;DHT22;51730;56.950;24.126;2023-04-03T05:48:12;1.10;99.90
65146;DHT22;51730;56.950;24.126;2023-04-03T05:50:39;1.00;99.90
65146;DHT22;51730;56.950;24.126;2023-04-03T05:53:12;1.10;99.90
65146;DHT22;51730;56.950;24.126;2023-04-03T05:55:40;1.10;99.90
65146;DHT22;51730;56.950;24.126;2023-04-03T05:58:07;1.20;99.90
65146;DHT22;51730;56.950;24.126;2023-04-03T06:00:37;1.10;99.90
65146;DHT22;51730;56.950;24.126;2023-04-03T06:03:03;1.10;99.90
65146;DHT22;51730;56.950;24.126;2023-04-03T06:05:30;1.20;99.90
65146;DHT22;51730;56.950;24.126;2023-04-03T06:07:57;1.20;99.90
65146;DHT22;51730;56.950;24.126;2023-04-03T06:10:24;1.20;99.90
65146;DHT22;51730;56.950;24.126;2023-04-03T06:12:51;1.40;99.90
65146;DHT22;51730;56.950;24.126;2023-04-03T06:15:17;1.40;99.90
65146;DHT22;51730;56.950;24.126;2023-04-03T06:17:44;1.40;99.90
65146;DHT22;51730;56.950;24.126;2023-04-03T06:20:11;1.40;99.90
65146;DHT22;51730;56.950;24.126;2023-04-03T06:22:38;1.20;98.40
65146;DHT22;51730;56.950;24.126;2023-04-03T06:25:05;1.20;98.00
65146;DHT22;51730;56.950;24.126;2023-04-03T06:27:32;1.30;98.90
65146;DHT22;51730;56.950;24.126;2023-04-03T06:29:59;1.30;99.60
65146;DHT22;51730;56.950;24.126;2023-04-03T06:32:26;1.40;99.30
65146;DHT22;51730;56.950;24.126;2023-04-03T06:34:53;1.40;98.70
65146;DHT22;51730;56.950;24.126;2023-04-03T06:37:21;1.40;97.00
65146;DHT22;51730;56.950;24.126;2023-04-03T06:39:48;1.50;96.50
65146;DHT22;51730;56.950;24.126;2023-04-03T06:42:15;1.60;94.10
65146;DHT22;51730;56.950;24.126;2023-04-03T06:44:42;1.40;95.20
65146;DHT22;51730;56.950;24.126;2023-04-03T06:47:12;1.40;95.70
65146;DHT22;51730;56.950;24.126;2023-04-03T06:49:39;1.40;94.80
65146;DHT22;51730;56.950;24.126;2023-04-03T06:52:06;1.60;94.60
65146;DHT22;51730;56.950;24.126;2023-04-03T06:54:32;1.80;92.70
65146;DHT22;51730;56.950;24.126;2023-04-03T06:56:59;1.80;90.30
65146;DHT22;51730;56.950;24.126;2023-04-03T06:59:26;1.70;89.80
65146;DHT22;51730;56.950;24.126;2023-04-03T07:01:53;1.50;90.20
65146;DHT22;51730;56.950;24.126;2023-04-03T07:04:20;1.60;91.00
65146;DHT22;51730;56.950;24.126;2023-04-03T07:06:47;1.50;91.10
65146;DHT22;51730;56.950;24.126;2023-04-03T07:09:14;1.50;88.80
65146;DHT22;51730;56.950;24.126;2023-04-03T07:11:41;1.60;88.80
65146;DHT22;51730;56.950;24.126;2023-04-03T07:14:08;1.60;85.70
65146;DHT22;51730;56.950;24.126;2023-04-03T07:16:35;1.50;87.50
65146;DHT22;51730;56.950;24.126;2023-04-03T07:19:02;1.70;87.60
65146;DHT22;51730;56.950;24.126;2023-04-03T07:21:29;1.60;87.30
65146;DHT22;51730;56.950;24.126;2023-04-03T07:23:56;1.80;86.00
65146;DHT22;51730;56.950;24.126;2023-04-03T07:26:23;1.90;82.50
65146;DHT22;51730;56.950;24.126;2023-04-03T07:28:49;1.90;79.00
65146;DHT22;51730;56.950;24.126;2023-04-03T07:31:16;1.80;79.40
65146;DHT22;51730;56.950;24.126;2023-04-03T07:33:44;1.90;79.40
65146;DHT22;51730;56.950;24.126;2023-04-03T07:36:14;1.90;79.90
65146;DHT22;51730;56.950;24.126;2023-04-03T07:38:42;2.00;77.70
65146;DHT22;51730;56.950;24.126;2023-04-03T07:41:11;1.90;75.50
65146;DHT22;51730;56.950;24.126;2023-04-03T07:43:38;2.00;75.40
65146;DHT22;51730;56.950;24.126;2023-04-03T07:46:05;1.90;76.60
65146;DHT22;51730;56.950;24.126;2023-04-03T07:48:32;1.90;75.80
65146;DHT22;51730;56.950;24.126;2023-04-03T07:50:59;1.80;74.50
65146;DHT22;51730;56.950;24.126;2023-04-03T07:53:27;2.00;73.60
65146;DHT22;51730;56.950;24.126;2023-04-03T07:55:54;2.10;72.60
65146;DHT22;51730;56.950;24.126;2023-04-03T07:58:22;2.20;72.10
65146;DHT22;51730;56.950;24.126;2023-04-03T08:00:49;2.30;73.80
65146;DHT22;51730;56.950;24.126;2023-04-03T08:03:17;2.50;76.50
65146;DHT22;51730;56.950;24.126;2023-04-03T08:05:45;2.80;76.60
65146;DHT22;51730;56.950;24.126;2023-04-03T08:08:14;2.90;76.00
65146;DHT22;51730;56.950;24.126;2023-04-03T08:10:41;2.80;74.70
65146;DHT22;51730;56.950;24.126;2023-04-03T08:13:08;2.70;74.10
65146;DHT22;51730;56.950;24.126;2023-04-03T08:15:35;2.50;74.30
65146;DHT22;51730;56.950;24.126;2023-04-03T08:18:03;2.60;75.70
65146;DHT22;51730;56.950;24.126;2023-04-03T08:20:30;2.70;78.20
65146;DHT22;51730;56.950;24.126;2023-04-03T08:22:57;2.70;79.90
65146;DHT22;51730;56.950;24.126;2023-04-03T08:25:23;2.70;78.60
65146;DHT22;51730;56.950;24.126;2023-04-03T08:27:51;2.80;76.60
65146;DHT22;51730;56.950;24.126;2023-04-03T08:30:18;2.70;76.30
65146;DHT22;51730;56.950;24.126;2023-04-03T08:32:44;2.50;74.40
65146;DHT22;51730;56.950;24.126;2023-04-03T08:35:11;2.30;75.10
65146;DHT22;51730;56.950;24.126;2023-04-03T08:37:38;2.30;72.50
65146;DHT22;51730;56.950;24.126;2023-04-03T08:40:06;2.30;73.00
65146;DHT22;51730;56.950;24.126;2023-04-03T08:50:17;3.00;71.20
65146;DHT22;51730;56.950;24.126;2023-04-03T08:52:48;3.00;71.50
65146;DHT22;51730;56.950;24.126;2023-04-03T08:55:22;3.10;70.90
65146;DHT22;51730;56.950;24.126;2023-04-03T08:57:51;3.20;69.00
65146;DHT22;51730;56.950;24.126;2023-04-03T09:00:23;3.20;69.40
65146;DHT22;51730;56.950;24.126;2023-04-03T09:02:51;3.20;67.80
65146;DHT22;51730;56.950;24.126;2023-04-03T09:05:19;3.30;68.00
65146;DHT22;51730;56.950;24.126;2023-04-03T09:08:06;3.30;67.70
65146;DHT22;51730;56.950;24.126;2023-04-03T09:10:34;3.30;66.10
65146;DHT22;51730;56.950;24.126;2023-04-03T09:13:05;3.20;66.30
65146;DHT22;51730;56.950;24.126;2023-04-03T09:15:34;3.20;67.40
65146;DHT22;51730;56.950;24.126;2023-04-03T09:20:46;2.90;68.70
65146;DHT22;51730;56.950;24.126;2023-04-03T09:23:30;2.70;69.90
65146;DHT22;51730;56.950;24.126;2023-04-03T09:26:03;2.50;69.50
65146;DHT22;51730;56.950;24.126;2023-04-03T09:28:32;2.70;70.10
65146;DHT22;51730;56.950;24.126;2023-04-03T09:31:16;2.90;68.80
65146;DHT22;51730;56.950;24.126;2023-04-03T09:33:44;3.00;68.40
65146;DHT22;51730;56.950;24.126;2023-04-03T09:36:12;2.90;67.40
65146;DHT22;51730;56.950;24.126;2023-04-03T09:38:39;2.80;66.60
65146;DHT22;51730;56.950;24.126;2023-04-03T09:41:07;2.90;67.50
65146;DHT22;51730;56.950;24.126;2023-04-03T09:43:34;3.20;67.90
65146;DHT22;51730;56.950;24.126;2023-04-03T09:48:52;3.20;66.30
65146;DHT22;51730;56.950;24.126;2023-04-03T09:51:34;3.20;67.40
65146;DHT22;51730;56.950;24.126;2023-04-03T09:54:01;3.40;65.70
65146;DHT22;51730;56.950;24.126;2023-04-03T09:56:51;3.30;65.90
65146;DHT22;51730;56.950;24.126;2023-04-03T09:59:18;3.40;65.20
65146;DHT22;51730;56.950;24.126;2023-04-03T10:04:39;3.40;65.90
65146;DHT22;51730;56.950;24.126;2023-04-03T10:12:43;3.30;65.60
65146;DHT22;51730;56.950;24.126;2023-04-03T10:15:14;3.30;67.30
65146;DHT22;51730;56.950;24.126;2023-04-03T10:25:50;3.30;66.00
65146;DHT22;51730;56.950;24.126;2023-04-03T10:33:47;3.70;65.10
65146;DHT22;51730;56.950;24.126;2023-04-03T10:36:36;3.70;66.80
65146;DHT22;51730;56.950;24.126;2023-04-03T10:44:13;3.90;66.10
65146;DHT22;51730;56.950;24.126;2023-04-03T10:46:45;3.80;63.80
65146;DHT22;51730;56.950;24.126;2023-04-03T10:49:25;4.00;64.40
65146;DHT22;51730;56.950;24.126;2023-04-03T10:54:25;4.30;62.20
65146;DHT22;51730;56.950;24.126;2023-04-03T10:56:54;4.10;62.50
65146;DHT22;51730;56.950;24.126;2023-04-03T10:59:51;4.10;62.60
65146;DHT22;51730;56.950;24.126;2023-04-03T11:07:41;4.00;62.30
65146;DHT22;51730;56.950;24.126;2023-04-03T11:10:10;3.80;62.10
65146;DHT22;51730;56.950;24.126;2023-04-03T11:12:42;3.70;63.30
65146;DHT22;51730;56.950;24.126;2023-04-03T11:15:12;3.80;63.80
65146;DHT22;51730;56.950;24.126;2023-04-03T11:17:41;4.00;64.10
65146;DHT22;51730;56.950;24.126;2023-04-03T11:20:21;4.00;64.10
65146;DHT22;51730;56.950;24.126;2023-04-03T11:22:57;4.20;63.90
65146;DHT22;51730;56.950;24.126;2023-04-03T11:25:25;4.40;63.50
65146;DHT22;51730;56.950;24.126;2023-04-03T11:27:56;4.10;62.90
65146;DHT22;51730;56.950;24.126;2023-04-03T11:33:15;4.00;62.30
65146;DHT22;51730;56.950;24.126;2023-04-03T11:35:44;4.00;62.20
65146;DHT22;51730;56.950;24.126;2023-04-03T11:38:21;4.00;62.60
65146;DHT22;51730;56.950;24.126;2023-04-03T11:40:49;4.10;60.90
65146;DHT22;51730;56.950;24.126;2023-04-03T11:43:21;3.80;62.70
65146;DHT22;51730;56.950;24.126;2023-04-03T11:45:56;3.80;63.90
65146;DHT22;51730;56.950;24.126;2023-04-03T11:50:59;4.00;63.40
65146;DHT22;51730;56.950;24.126;2023-04-03T11:53:30;3.90;63.70
65146;DHT22;51730;56.950;24.126;2023-04-03T11:56:01;3.90;62.30
65146;DHT22;51730;56.950;24.126;2023-04-03T11:58:29;4.10;60.40
65146;DHT22;51730;56.950;24.126;2023-04-03T12:00:58;4.30;60.50
65146;DHT22;51730;56.950;24.126;2023-04-03T12:05:54;4.30;59.80
65146;DHT22;51730;56.950;24.126;2023-04-03T12:16:21;4.10;61.90
65146;DHT22;51730;56.950;24.126;2023-04-03T12:21:16;3.80;63.50
65146;DHT22;51730;56.950;24.126;2023-04-03T12:24:49;4.00;62.70
65146;DHT22;51730;56.950;24.126;2023-04-03T12:39:52;4.10;61.40
65146;DHT22;51730;56.950;24.126;2023-04-03T12:42:29;4.30;62.20
65146;DHT22;51730;56.950;24.126;2023-04-03T12:45:10;4.00;62.80
65146;DHT22;51730;56.950;24.126;2023-04-03T12:47:38;3.90;62.60
65146;DHT22;51730;56.950;24.126;2023-04-03T12:52:45;3.80;62.30
65146;DHT22;51730;56.950;24.126;2023-04-03T12:55:15;3.80;63.40
65146;DHT22;51730;56.950;24.126;2023-04-03T12:57:41;3.80;64.00
65146;DHT22;51730;56.950;24.126;2023-04-03T13:00:32;3.90;64.60
65146;DHT22;51730;56.950;24.126;2023-04-03T13:02:55;4.10;64.80
65146;DHT22;51730;56.950;24.126;2023-04-03T13:05:23;4.20;65.30
65146;DHT22;51730;56.950;24.126;2023-04-03T13:07:52;4.20;64.50
65146;DHT22;51730;56.950;24.126;2023-04-03T13:10:21;3.90;63.90
65146;DHT22;51730;56.950;24.126;2023-04-03T13:12:49;3.80;64.70
65146;DHT22;51730;56.950;24.126;2023-04-03T13:15:29;3.60;65.50
65146;DHT22;51730;56.950;24.126;2023-04-03T13:17:56;3.40;67.30
65146;DHT22;51730;56.950;24.126;2023-04-03T13:20:27;3.30;68.30
65146;DHT22;51730;56.950;24.126;2023-04-03T13:22:56;3.40;70.30
65146;DHT22;51730;56.950;24.126;2023-04-03T13:25:24;3.60;73.40
65146;DHT22;51730;56.950;24.126;2023-04-03T13:27:52;3.70;75.90
65146;DHT22;51730;56.950;24.126;2023-04-03T13:30:38;3.60;79.70
65146;DHT22;51730;56.950;24.126;2023-04-03T13:33:17;3.50;79.70
65146;DHT22;51730;56.950;24.126;2023-04-03T13:35:45;3.50;81.50
65146;DHT22;51730;56.950;24.126;2023-04-03T13:40:55;3.70;80.90
65146;DHT22;51730;56.950;24.126;2023-04-03T13:43:27;3.60;82.10
65146;DHT22;51730;56.950;24.126;2023-04-03T13:46:04;3.80;83.60
65146;DHT22;51730;56.950;24.126;2023-04-03T13:48:36;3.70;81.60
65146;DHT22;51730;56.950;24.126;2023-04-03T13:51:04;3.50;79.60
65146;DHT22;51730;56.950;24.126;2023-04-03T13:53:32;3.20;82.30
65146;DHT22;51730;56.950;24.126;2023-04-03T13:56:13;3.20;87.20
65146;DHT22;51730;56.950;24.126;2023-04-03T13:58:52;3.30;84.10
65146;DHT22;51730;56.950;24.126;2023-04-03T14:01:21;3.30;85.00
65146;DHT22;51730;56.950;24.126;2023-04-03T14:06:15;3.00;85.30
65146;DHT22;51730;56.950;24.126;2023-04-03T14:08:43;3.00;85.20
65146;DHT22;51730;56.950;24.126;2023-04-03T14:11:20;3.10;88.20
65146;DHT22;51730;56.950;24.126;2023-04-03T14:13:47;3.20;90.80
65146;DHT22;51730;56.950;24.126;2023-04-03T14:16:15;3.20;97.40
65146;DHT22;51730;56.950;24.126;2023-04-03T14:18:44;3.00;99.90
65146;DHT22;51730;56.950;24.126;2023-04-03T14:21:12;2.90;99.90
65146;DHT22;51730;56.950;24.126;2023-04-03T14:23:39;2.90;99.90
65146;DHT22;51730;56.950;24.126;2023-04-03T14:26:10;2.90;99.90
65146;DHT22;51730;56.950;24.126;2023-04-03T14:28:38;3.00;99.90
65146;DHT22;51730;56.950;24.126;2023-04-03T14:31:10;2.80;99.90
65146;DHT22;51730;56.950;24.126;2023-04-03T14:33:37;2.90;99.90
65146;DHT22;51730;56.950;24.126;2023-04-03T14:36:23;3.00;99.90
65146;DHT22;51730;56.950;24.126;2023-04-03T14:38:52;3.00;99.90
65146;DHT22;51730;56.950;24.126;2023-04-03T14:41:19;3.00;99.90
65146;DHT22;51730;56.950;24.126;2023-04-03T14:43:47;3.00;99.90
65146;DHT22;51730;56.950;24.126;2023-04-03T14:46:15;2.70;99.90
65146;DHT22;51730;56.950;24.126;2023-04-03T14:48:42;2.90;99.90
65146;DHT22;51730;56.950;24.126;2023-04-03T14:51:10;2.70;99.90
65146;DHT22;51730;56.950;24.126;2023-04-03T14:53:37;2.80;99.90
65146;DHT22;51730;56.950;24.126;2023-04-03T14:56:10;2.80;99.90
65146;DHT22;51730;56.950;24.126;2023-04-03T14:58:37;2.80;99.90
65146;DHT22;51730;56.950;24.126;2023-04-03T15:01:04;3.00;99.90
65146;DHT22;51730;56.950;24.126;2023-04-03T15:03:31;3.00;99.90
65146;DHT22;51730;56.950;24.126;2023-04-03T15:05:58;3.00;99.90
65146;DHT22;51730;56.950;24.126;2023-04-03T15:08:26;3.10;99.90
65146;DHT22;51730;56.950;24.126;2023-04-03T15:10:57;2.80;99.90
65146;DHT22;51730;56.950;24.126;2023-04-03T15:13:24;2.60;99.90
65146;DHT22;51730;56.950;24.126;2023-04-03T15:15:52;2.30;99.90
65146;DHT22;51730;56.950;24.126;2023-04-03T15:18:22;2.20;99.90
65146;DHT22;51730;56.950;24.126;2023-04-03T15:20:49;2.10;99.90
65146;DHT22;51730;56.950;24.126;2023-04-03T15:23:16;2.00;99.90
65146;DHT22;51730;56.950;24.126;2023-04-03T15:25:44;2.00;99.90
65146;DHT22;51730;56.950;24.126;2023-04-03T15:28:19;2.10;99.90
65146;DHT22;51730;56.950;24.126;2023-04-03T15:30:48;2.10;99.90
65146;DHT22;51730;56.950;24.126;2023-04-03T15:33:15;2.00;99.90
65146;DHT22;51730;56.950;24.126;2023-04-03T15:35:42;2.00;99.90
65146;DHT22;51730;56.950;24.126;2023-04-03T15:38:09;2.00;99.90
65146;DHT22;51730;56.950;24.126;2023-04-03T15:40:36;2.00;99.90
65146;DHT22;51730;56.950;24.126;2023-04-03T15:43:04;2.00;99.90
65146;DHT22;51730;56.950;24.126;2023-04-03T15:45:31;2.10;99.90
65146;DHT22;51730;56.950;24.126;2023-04-03T15:47:58;2.00;99.90
65146;DHT22;51730;56.950;24.126;2023-04-03T15:50:25;2.00;99.90
65146;DHT22;51730;56.950;24.126;2023-04-03T15:52:52;2.10;99.90
65146;DHT22;51730;56.950;24.126;2023-04-03T15:55:22;2.20;99.90
65146;DHT22;51730;56.950;24.126;2023-04-03T15:57:48;2.10;99.90
65146;DHT22;51730;56.950;24.126;2023-04-03T16:00:16;2.00;99.90
65146;DHT22;51730;56.950;24.126;2023-04-03T16:02:44;1.80;99.90
65146;DHT22;51730;56.950;24.126;2023-04-03T16:05:12;1.80;99.90
65146;DHT22;51730;56.950;24.126;2023-04-03T16:07:39;1.70;99.90
65146;DHT22;51730;56.950;24.126;2023-04-03T16:10:06;1.70;99.90
65146;DHT22;51730;56.950;24.126;2023-04-03T16:12:33;1.70;99.90
65146;DHT22;51730;56.950;24.126;2023-04-03T16:15:02;1.60;99.90
65146;DHT22;51730;56.950;24.126;2023-04-03T16:17:29;1.40;99.90
65146;DHT22;51730;56.950;24.126;2023-04-03T16:19:56;1.50;99.90
65146;DHT22;51730;56.950;24.126;2023-04-03T16:22:23;1.60;99.90
65146;DHT22;51730;56.950;24.126;2023-04-03T16:24:51;1.70;99.90
65146;DHT22;51730;56.950;24.126;2023-04-03T16:27:18;1.60;99.90
65146;DHT22;51730;56.950;24.126;2023-04-03T16:29:44;1.50;99.90
65146;DHT22;51730;56.950;24.126;2023-04-03T16:32:13;1.50;99.90
65146;DHT22;51730;56.950;24.126;2023-04-03T16:34:40;1.50;99.90
65146;DHT22;51730;56.950;24.126;2023-04-03T16:37:08;1.40;99.90
65146;DHT22;51730;56.950;24.126;2023-04-03T16:39:35;1.40;99.90
65146;DHT22;51730;56.950;24.126;2023-04-03T16:42:02;1.30;99.90
65146;DHT22;51730;56.950;24.126;2023-04-03T16:44:29;1.20;99.90
65146;DHT22;51730;56.950;24.126;2023-04-03T16:46:55;1.20;99.90
65146;DHT22;51730;56.950;24.126;2023-04-03T16:49:22;1.20;99.90
65146;DHT22;51730;56.950;24.126;2023-04-03T16:51:49;1.20;99.90
65146;DHT22;51730;56.950;24.126;2023-04-03T16:54:16;1.20;99.90
65146;DHT22;51730;56.950;24.126;2023-04-03T16:56:43;1.20;99.90
65146;DHT22;51730;56.950;24.126;2023-04-03T16:59:09;1.10;99.90
65146;DHT22;51730;56.950;24.126;2023-04-03T17:01:36;1.10;99.90
65146;DHT22;51730;56.950;24.126;2023-04-03T17:04:03;1.10;99.90
65146;DHT22;51730;56.950;24.126;2023-04-03T17:06:30;1.00;99.90
65146;DHT22;51730;56.950;24.126;2023-04-03T17:08:57;1.00;99.90
65146;DHT22;51730;56.950;24.126;2023-04-03T17:11:24;1.10;99.90
65146;DHT22;51730;56.950;24.126;2023-04-03T17:13:51;1.10;99.90
65146;DHT22;51730;56.950;24.126;2023-04-03T17:16:18;1.10;99.90
65146;DHT22;51730;56.950;24.126;2023-04-03T17:18:45;1.20;99.90